createdAt,value
2022-10-11T00:01:18.303Z,102346.78
2022-10-11T00:03:44.872Z,102339.66
2022-10-11T00:06:11.346Z,102344.28
2022-10-11T00:08:37.857Z,102342.47
2022-10-11T00:11:06.648Z,102345.53
2022-10-11T00:13:33.930Z,102353.78
2022-10-11T00:16:00.434Z,102356.31
2022-10-11T00:18:27.205Z,102350.72
2022-10-11T00:21:05.969Z,102354.66
2022-10-11T00:23:33.200Z,102350.16
2022-10-11T00:26:02.394Z,102349.47
2022-10-11T00:28:29.424Z,102348.50
2022-10-11T00:30:55.890Z,102353.41
2022-10-11T00:33:22.286Z,102353.56
2022-10-11T00:35:48.899Z,102356.50
2022-10-11T00:38:15.771Z,102365.63
2022-10-11T00:40:42.268Z,102354.16
2022-10-11T00:43:16.971Z,102359.38
2022-10-11T00:45:59.669Z,102351.00
2022-10-11T00:48:35.195Z,102365.47
2022-10-11T00:51:06.211Z,102366.13
2022-10-11T00:53:34.133Z,102361.22
2022-10-11T00:56:07.058Z,102352.41
2022-10-11T00:58:36.341Z,102361.94
2022-10-11T01:01:03.306Z,102363.91
2022-10-11T01:03:31.611Z,102364.91
2022-10-11T01:05:58.115Z,102360.28
2022-10-11T01:08:25.486Z,102368.28
2022-10-11T01:10:52.128Z,102363.34
2022-10-11T01:13:30.912Z,102344.88
2022-10-11T01:16:25.060Z,102372.09
2022-10-11T01:19:03.089Z,102374.59
2022-10-11T01:21:45.799Z,102374.88
2022-10-11T01:24:30.185Z,102372.19
2022-10-11T01:26:59.247Z,102375.16
2022-10-11T01:29:40.186Z,102373.78
2022-10-11T01:32:09.635Z,102380.22
2022-10-11T01:34:41.725Z,102375.75
2022-10-11T01:37:12.287Z,102393.41
2022-10-11T01:40:05.066Z,102386.94
2022-10-11T01:42:31.894Z,102386.09
2022-10-11T01:44:59.378Z,102396.63
2022-10-11T01:47:26.628Z,102400.00
2022-10-11T01:49:57.997Z,102388.63
2022-10-11T01:52:27.137Z,102389.75
2022-10-11T01:55:15.049Z,102388.78
2022-10-11T01:57:53.541Z,102376.72
2022-10-11T02:00:25.944Z,102396.91
2022-10-11T02:03:31.878Z,102396.63
2022-10-11T02:06:32.466Z,102393.97
2022-10-11T02:09:31.381Z,102386.13
2022-10-11T02:12:07.182Z,102401.13
2022-10-11T02:14:38.731Z,102402.41
2022-10-11T02:17:13.613Z,102388.78
2022-10-11T02:19:50.253Z,102390.03
2022-10-11T02:22:27.862Z,102393.97
2022-10-11T02:24:58.396Z,102395.94
2022-10-11T02:27:29.700Z,102391.31
2022-10-11T02:29:59.868Z,102387.09
2022-10-11T02:32:27.434Z,102394.53
2022-10-11T02:34:56.490Z,102388.50
2022-10-11T02:37:31.761Z,102395.69
2022-10-11T02:40:07.053Z,102392.84
2022-10-11T02:42:38.821Z,102383.19
2022-10-11T02:45:13.126Z,102395.09
2022-10-11T02:47:41.421Z,102399.38
2022-10-11T02:50:08.160Z,102395.75
2022-10-11T02:52:34.516Z,102393.38
2022-10-11T02:55:00.931Z,102400.22
2022-10-11T02:57:27.309Z,102395.59
2022-10-11T02:59:53.715Z,102396.00
2022-10-11T03:02:20.074Z,102401.88
2022-10-11T03:04:46.503Z,102403.31
2022-10-11T03:07:13.059Z,102400.66
2022-10-11T03:09:39.536Z,102397.41
2022-10-11T03:12:06.026Z,102414.38
2022-10-11T03:14:32.638Z,102405.69
2022-10-11T03:17:17.330Z,102405.97
2022-10-11T03:19:46.461Z,102407.69
2022-10-11T03:22:12.962Z,102412.44
2022-10-11T03:24:40.359Z,102421.53
2022-10-11T03:27:06.926Z,102409.16
2022-10-11T03:29:33.299Z,102398.66
2022-10-11T03:31:59.707Z,102402.31
2022-10-11T03:34:26.245Z,102411.66
2022-10-11T03:36:52.658Z,102407.59
2022-10-11T03:39:19.441Z,102408.72
2022-10-11T03:41:45.994Z,102411.00
2022-10-11T03:44:12.631Z,102406.91
2022-10-11T03:46:39.187Z,102418.56
2022-10-11T03:49:05.717Z,102394.38
2022-10-11T03:51:32.118Z,102417.34
2022-10-11T03:53:58.489Z,102420.56
2022-10-11T03:56:24.911Z,102413.44
2022-10-11T03:58:51.267Z,102410.63
2022-10-11T04:01:17.867Z,102418.03
2022-10-11T04:03:44.331Z,102413.13
2022-10-11T04:06:10.695Z,102416.69
2022-10-11T04:08:37.084Z,102408.03
2022-10-11T04:11:03.584Z,102421.84
2022-10-11T04:13:29.967Z,102422.06
2022-10-11T04:15:56.334Z,102424.72
2022-10-11T04:18:22.770Z,102426.59
2022-10-11T04:20:49.267Z,102434.28
2022-10-11T04:23:15.765Z,102436.22
2022-10-11T04:25:42.180Z,102428.69
2022-10-11T04:28:09.261Z,102434.22
2022-10-11T04:30:35.793Z,102450.78
2022-10-11T04:33:02.241Z,102436.59
2022-10-11T04:35:28.650Z,102438.53
2022-10-11T04:37:55.125Z,102439.78
2022-10-11T04:40:21.582Z,102448.63
2022-10-11T04:42:48.091Z,102447.38
2022-10-11T04:45:14.592Z,102449.03
2022-10-11T04:47:41.602Z,102445.38
2022-10-11T04:50:08.253Z,102445.78
2022-10-11T04:52:34.675Z,102440.47
2022-10-11T04:55:01.331Z,102447.31
2022-10-11T04:57:27.708Z,102446.59
2022-10-11T04:59:54.134Z,102446.44
2022-10-11T05:02:20.613Z,102451.63
2022-10-11T05:04:47.139Z,102457.66
2022-10-11T05:07:13.655Z,102450.78
2022-10-11T05:09:40.096Z,102450.97
2022-10-11T05:12:06.482Z,102454.91
2022-10-11T05:14:32.978Z,102456.00
2022-10-11T05:16:59.401Z,102453.19
2022-10-11T05:19:25.872Z,102469.44
2022-10-11T05:21:52.237Z,102462.97
2022-10-11T05:24:18.641Z,102466.91
2022-10-11T05:26:45.015Z,102474.47
2022-10-11T05:29:11.468Z,102478.78
2022-10-11T05:31:37.966Z,102477.63
2022-10-11T05:34:04.652Z,102469.91
2022-10-11T05:36:31.086Z,102470.19
2022-10-11T05:38:57.456Z,102478.56
2022-10-11T05:41:23.955Z,102478.88
2022-10-11T05:43:50.329Z,102485.09
2022-10-11T05:46:16.774Z,102478.63
2022-10-11T05:48:43.195Z,102478.88
2022-10-11T05:51:11.013Z,102485.56
2022-10-11T05:53:38.331Z,102482.31
2022-10-11T05:56:06.378Z,102487.25
2022-10-11T05:58:33.122Z,102490.38
2022-10-11T06:01:00.599Z,102492.91
2022-10-11T06:03:27.045Z,102494.88
2022-10-11T06:05:56.971Z,102501.22
2022-10-11T06:08:30.648Z,102498.44
2022-10-11T06:10:57.249Z,102505.75
2022-10-11T06:13:23.582Z,102506.25
2022-10-11T06:15:50.158Z,102501.75
2022-10-11T06:18:16.547Z,102505.38
2022-10-11T06:20:42.947Z,102504.72
2022-10-11T06:23:09.359Z,102502.66
2022-10-11T06:25:35.833Z,102506.97
2022-10-11T06:28:02.370Z,102511.19
2022-10-11T06:30:28.828Z,102518.78
2022-10-11T06:32:55.170Z,102515.84
2022-10-11T06:35:21.553Z,102512.94
2022-10-11T06:37:47.898Z,102518.56
2022-10-11T06:40:14.320Z,102519.22
2022-10-11T06:42:40.739Z,102522.22
2022-10-11T06:45:07.723Z,102525.41
2022-10-11T06:47:34.150Z,102526.56
2022-10-11T06:50:00.510Z,102528.84
2022-10-11T06:52:26.953Z,102533.59
2022-10-11T06:54:53.437Z,102533.63
2022-10-11T06:57:19.934Z,102536.59
2022-10-11T06:59:46.445Z,102535.31
2022-10-11T07:02:12.776Z,102538.81
2022-10-11T07:04:39.361Z,102540.94
2022-10-11T07:07:05.855Z,102549.94
2022-10-11T07:09:34.708Z,102544.31
2022-10-11T07:12:01.134Z,102541.78
2022-10-11T07:14:27.660Z,102542.06
2022-10-11T07:16:54.101Z,102539.81
2022-10-11T07:19:20.616Z,102550.91
2022-10-11T07:21:47.002Z,102548.81
2022-10-11T07:24:13.449Z,102542.63
2022-10-11T07:26:39.845Z,102556.38
2022-10-11T07:29:10.291Z,102557.94
2022-10-11T07:31:38.713Z,102552.44
2022-10-11T07:34:05.127Z,102551.72
2022-10-11T07:36:31.623Z,102554.38
2022-10-11T07:38:58.069Z,102560.16
2022-10-11T07:41:24.447Z,102556.94
2022-10-11T07:43:51.055Z,102554.53
2022-10-11T07:46:18.386Z,102554.78
2022-10-11T07:48:45.012Z,102556.72
2022-10-11T07:51:18.003Z,102557.13
2022-10-11T07:53:49.932Z,102559.94
2022-10-11T07:56:22.406Z,102544.34
2022-10-11T07:58:53.996Z,102558.63
2022-10-11T08:01:21.197Z,102566.00
2022-10-11T08:03:48.247Z,102561.72
2022-10-11T08:06:17.771Z,102569.25
2022-10-11T08:08:44.497Z,102568.25
2022-10-11T08:11:10.960Z,102562.00
2022-10-11T08:13:37.375Z,102554.78
2022-10-11T08:16:11.074Z,102563.75
2022-10-11T08:18:37.627Z,102570.56
2022-10-11T08:21:11.908Z,102573.94
2022-10-11T08:23:39.104Z,102566.94
2022-10-11T08:26:06.410Z,102566.28
2022-10-11T08:28:33.394Z,102568.63
2022-10-11T08:31:00.051Z,102568.75
2022-10-11T08:33:26.666Z,102573.41
2022-10-11T08:35:54.077Z,102576.09
2022-10-11T08:38:21.059Z,102581.56
2022-10-11T08:40:50.717Z,102569.56
2022-10-11T08:43:33.168Z,102587.75
2022-10-11T08:46:03.258Z,102587.97
2022-10-11T08:48:48.046Z,102589.06
2022-10-11T08:51:25.746Z,102596.88
2022-10-11T08:53:58.168Z,102591.31
2022-10-11T08:56:26.406Z,102592.56
2022-10-11T08:58:59.100Z,102589.69
2022-10-11T09:01:27.936Z,102570.31
2022-10-11T09:04:03.679Z,102596.22
2022-10-11T09:06:54.346Z,102580.47
2022-10-11T09:09:42.497Z,102604.06
2022-10-11T09:12:22.827Z,102598.88
2022-10-11T09:15:01.110Z,102601.25
2022-10-11T09:17:44.934Z,102590.63
2022-10-11T09:20:32.404Z,102595.09
2022-10-11T09:23:13.552Z,102591.19
2022-10-11T09:25:55.019Z,102588.19
2022-10-11T09:28:43.382Z,102598.31
2022-10-11T09:31:11.416Z,102586.50
2022-10-11T09:33:47.049Z,102606.13
2022-10-11T09:36:39.408Z,102611.31
2022-10-11T09:39:30.266Z,102605.94
2022-10-11T09:42:01.448Z,102612.38
2022-10-11T09:44:40.173Z,102598.13
2022-10-11T09:47:13.331Z,102606.47
2022-10-11T09:49:50.541Z,102593.44
2022-10-11T09:52:19.522Z,102604.00
2022-10-11T09:54:48.941Z,102612.03
2022-10-11T09:57:53.953Z,102611.38
2022-10-11T10:00:23.693Z,102619.25
2022-10-11T10:02:57.393Z,102614.16
2022-10-11T10:05:25.944Z,102599.69
2022-10-11T10:08:08.086Z,102593.16
2022-10-11T10:10:41.479Z,102574.75
2022-10-11T10:13:46.769Z,102577.38
2022-10-11T10:16:28.907Z,102575.06
2022-10-11T10:19:02.020Z,102582.19
2022-10-11T10:21:35.023Z,102547.59
2022-10-11T10:24:18.310Z,102581.31
2022-10-11T10:27:07.246Z,102560.97
2022-10-11T10:29:33.755Z,102564.03
2022-10-11T10:32:14.438Z,102570.97
2022-10-11T10:35:08.500Z,102575.31
2022-10-11T10:37:37.916Z,102586.53
2022-10-11T10:40:10.085Z,102586.78
2022-10-11T10:42:37.036Z,102588.19
2022-10-11T10:45:12.147Z,102569.00
2022-10-11T10:47:48.465Z,102587.56
2022-10-11T10:50:23.502Z,102587.56
2022-10-11T10:53:03.908Z,102580.00
2022-10-11T10:55:44.804Z,102577.44
2022-10-11T10:58:31.533Z,102564.81
2022-10-11T11:01:23.237Z,102537.16
2022-10-11T11:04:02.016Z,102550.88
2022-10-11T11:06:42.270Z,102555.13
2022-10-11T11:09:36.425Z,102554.03
2022-10-11T11:12:36.227Z,102555.63
2022-10-11T11:15:11.410Z,102549.22
2022-10-11T11:17:49.718Z,102548.44
2022-10-11T11:20:27.283Z,102548.66
2022-10-11T11:23:23.870Z,102550.28
2022-10-11T11:26:08.909Z,102538.06
2022-10-11T11:28:57.440Z,102546.69
2022-10-11T11:31:54.984Z,102549.81
2022-10-11T11:34:38.291Z,102528.38
2022-10-11T11:37:14.375Z,102523.34
2022-10-11T11:39:48.935Z,102549.06
2022-10-11T11:42:41.838Z,102533.41
2022-10-11T11:45:33.142Z,102543.94
2022-10-11T11:48:27.056Z,102559.63
2022-10-11T11:51:09.106Z,102564.78
2022-10-11T11:54:08.342Z,102549.91
2022-10-11T11:57:07.224Z,102549.66
2022-10-11T11:59:56.921Z,102529.22
2022-10-11T12:02:47.595Z,102546.59
2022-10-11T12:05:19.547Z,102544.66
2022-10-11T12:07:54.102Z,102556.47
2022-10-11T12:10:25.215Z,102520.91
2022-10-11T12:13:06.347Z,102549.44
2022-10-11T12:15:32.903Z,102548.81
2022-10-11T12:18:01.258Z,102551.41
2022-10-11T12:20:32.592Z,102551.41
2022-10-11T12:23:02.049Z,102534.97
2022-10-11T12:25:33.202Z,102550.69
2022-10-11T12:28:03.237Z,102550.53
2022-10-11T12:30:47.520Z,102548.50
2022-10-11T12:33:21.288Z,102552.94
2022-10-11T12:35:55.443Z,102550.22
2022-10-11T12:38:28.805Z,102536.00
2022-10-11T12:41:19.608Z,102539.34
2022-10-11T12:43:48.771Z,102537.78
2022-10-11T12:46:33.514Z,102539.09
2022-10-11T12:49:10.182Z,102538.63
2022-10-11T12:51:50.894Z,102534.78
2022-10-11T12:54:54.793Z,102536.09
2022-10-11T12:58:04.311Z,102536.00
2022-10-11T13:00:41.570Z,102529.69
2022-10-11T13:03:32.366Z,102542.59
2022-10-11T13:06:01.905Z,102538.84
2022-10-11T13:08:34.430Z,102535.88
2022-10-11T13:11:11.600Z,102537.84
2022-10-11T13:13:56.369Z,102534.00
2022-10-11T13:16:28.687Z,102509.09
2022-10-11T13:19:00.128Z,102515.25
2022-10-11T13:21:36.414Z,102502.81
2022-10-11T13:24:12.057Z,102515.25
2022-10-11T13:26:38.660Z,102512.28
2022-10-11T13:29:16.225Z,102517.47
2022-10-11T13:31:45.847Z,102514.97
2022-10-11T13:34:13.442Z,102511.31
2022-10-11T13:36:40.245Z,102513.06
2022-10-11T13:39:07.416Z,102511.66
2022-10-11T13:41:35.230Z,102511.66
2022-10-11T13:44:02.850Z,102500.44
2022-10-11T13:46:31.257Z,102498.06
2022-10-11T13:49:23.855Z,102479.16
2022-10-11T13:52:02.732Z,102503.97
2022-10-11T13:55:03.124Z,102504.97
2022-10-11T13:57:44.522Z,102495.78
2022-10-11T14:00:23.438Z,102487.59
2022-10-11T14:02:51.890Z,102509.69
2022-10-11T14:05:32.379Z,102511.91
2022-10-11T14:08:01.745Z,102505.25
2022-10-11T14:10:28.792Z,102498.72
2022-10-11T14:13:21.236Z,102501.59
2022-10-11T14:16:09.351Z,102508.44
2022-10-11T14:18:43.929Z,102491.84
2022-10-11T14:21:19.451Z,102505.25
2022-10-11T14:23:47.103Z,102500.19
2022-10-11T14:26:18.728Z,102501.41
2022-10-11T14:28:46.383Z,102500.09
2022-10-11T14:31:12.871Z,102502.28
2022-10-11T14:33:39.276Z,102493.41
2022-10-11T14:36:06.024Z,102496.91
2022-10-11T14:38:32.663Z,102498.59
2022-10-11T14:40:59.013Z,102495.13
2022-10-11T14:43:25.404Z,102496.81
2022-10-11T14:45:51.900Z,102491.41
2022-10-11T14:48:36.638Z,102493.94
2022-10-11T14:51:05.892Z,102493.56
2022-10-11T14:53:32.293Z,102491.59
2022-10-11T14:55:58.737Z,102495.31
2022-10-11T14:58:25.150Z,102497.34
2022-10-11T15:00:51.527Z,102494.84
2022-10-11T15:03:17.938Z,102494.47
2022-10-11T15:05:44.358Z,102488.13
2022-10-11T15:08:11.839Z,102487.66
2022-10-11T15:10:42.111Z,102480.97
2022-10-11T15:13:09.359Z,102475.59
2022-10-11T15:15:40.770Z,102487.16
2022-10-11T15:18:12.658Z,102472.72
2022-10-11T15:20:41.741Z,102458.69
2022-10-11T15:23:12.168Z,102477.44
2022-10-11T15:25:39.962Z,102469.22
2022-10-11T15:28:07.439Z,102479.13
2022-10-11T15:30:41.053Z,102483.66
2022-10-11T15:33:07.893Z,102483.72
2022-10-11T15:35:34.325Z,102474.31
2022-10-11T15:38:00.813Z,102456.41
2022-10-11T15:40:32.236Z,102463.81
2022-10-11T15:42:59.132Z,102471.50
2022-10-11T15:45:26.461Z,102467.66
2022-10-11T15:47:53.201Z,102464.28
2022-10-11T15:50:35.287Z,102471.88
2022-10-11T15:53:12.755Z,102456.78
2022-10-11T15:55:42.554Z,102460.63
2022-10-11T15:58:21.021Z,102456.66
2022-10-11T16:00:50.191Z,102442.09
2022-10-11T16:03:17.993Z,102461.53
2022-10-11T16:05:44.480Z,102465.22
2022-10-11T16:08:11.864Z,102467.09
2022-10-11T16:10:39.797Z,102468.25
2022-10-11T16:13:06.375Z,102468.63
2022-10-11T16:15:34.172Z,102471.66
2022-10-11T16:18:00.969Z,102471.34
2022-10-11T16:20:27.516Z,102462.97
2022-10-11T16:22:54.854Z,102464.16
2022-10-11T16:25:21.935Z,102472.38
2022-10-11T16:27:48.612Z,102481.97
2022-10-11T16:30:17.410Z,102472.59
2022-10-11T16:32:44.496Z,102479.66
2022-10-11T16:35:12.971Z,102476.16
2022-10-11T16:37:39.839Z,102478.88
2022-10-11T16:40:08.125Z,102479.03
2022-10-11T16:42:34.564Z,102475.19
2022-10-11T16:45:01.363Z,102486.28
2022-10-11T16:47:27.731Z,102486.28
2022-10-11T16:49:54.089Z,102489.50
2022-10-11T16:52:20.620Z,102490.66
2022-10-11T16:54:47.662Z,102496.50
2022-10-11T16:57:16.362Z,102500.34
2022-10-11T16:59:42.834Z,102488.94
2022-10-11T17:02:16.055Z,102496.66
2022-10-11T17:04:42.686Z,102492.25
2022-10-11T17:07:14.896Z,102490.06
2022-10-11T17:09:44.438Z,102493.22
2022-10-11T17:12:13.768Z,102498.13
2022-10-11T17:14:41.338Z,102493.06
2022-10-11T17:17:09.324Z,102488.38
2022-10-11T17:19:41.313Z,102471.69
2022-10-11T17:22:11.895Z,102497.69
2022-10-11T17:24:39.117Z,102503.50
2022-10-11T17:27:06.178Z,102501.13
2022-10-11T17:29:33.075Z,102488.69
2022-10-11T17:31:59.912Z,102501.59
2022-10-11T17:34:27.533Z,102491.50
2022-10-11T17:36:54.115Z,102483.50
2022-10-11T17:39:23.181Z,102498.50
2022-10-11T17:41:50.293Z,102489.97
2022-10-11T17:44:18.459Z,102486.66
2022-10-11T17:46:45.884Z,102492.59
2022-10-11T17:49:13.070Z,102489.56
2022-10-11T17:51:40.463Z,102491.09
2022-10-11T17:54:12.189Z,102487.19
2022-10-11T17:56:40.349Z,102484.84
2022-10-11T17:59:08.028Z,102482.81
2022-10-11T18:01:34.594Z,102491.38
2022-10-11T18:04:04.196Z,102431.97
2022-10-11T18:06:39.613Z,102486.25
2022-10-11T18:09:06.584Z,102475.81
2022-10-11T18:11:34.275Z,102490.16
2022-10-11T18:14:00.930Z,102485.59
2022-10-11T18:16:29.240Z,102493.91
2022-10-11T18:18:57.472Z,102502.31
2022-10-11T18:21:33.667Z,102491.41
2022-10-11T18:24:03.508Z,102496.75
2022-10-11T18:26:30.866Z,102496.00
2022-10-11T18:28:58.049Z,102484.56
2022-10-11T18:31:27.311Z,102488.00
2022-10-11T18:33:54.603Z,102487.38
2022-10-11T18:36:23.643Z,102493.03
2022-10-11T18:38:54.949Z,102499.44
2022-10-11T18:41:23.464Z,102488.84
2022-10-11T18:43:55.201Z,102469.16
2022-10-11T18:46:23.354Z,102492.97
2022-10-11T18:48:52.282Z,102490.78
2022-10-11T18:51:24.747Z,102481.63
2022-10-11T18:53:52.545Z,102486.66
2022-10-11T18:56:21.055Z,102491.31
2022-10-11T18:58:50.205Z,102484.25
2022-10-11T19:01:19.561Z,102483.25
2022-10-11T19:03:47.836Z,102487.47
2022-10-11T19:06:17.775Z,102482.41
2022-10-11T19:08:45.882Z,102492.94
2022-10-11T19:11:13.694Z,102496.22
2022-10-11T19:13:40.337Z,102483.25
2022-10-11T19:16:16.505Z,102485.38
2022-10-11T19:18:44.533Z,102484.84
2022-10-11T19:21:13.035Z,102483.41
2022-10-11T19:23:42.142Z,102480.28
2022-10-11T19:26:13.942Z,102482.69
2022-10-11T19:28:40.845Z,102481.38
2022-10-11T19:31:10.277Z,102484.97
2022-10-11T19:33:36.926Z,102490.44
2022-10-11T19:36:06.664Z,102469.75
2022-10-11T19:38:34.750Z,102481.97
2022-10-11T19:41:04.580Z,102490.50
2022-10-11T19:43:31.926Z,102494.09
2022-10-11T19:46:08.322Z,102479.72
2022-10-11T19:48:38.995Z,102485.91
2022-10-11T19:51:08.667Z,102446.47
2022-10-11T19:53:35.326Z,102487.25
2022-10-11T19:56:03.641Z,102486.28
2022-10-11T19:58:30.208Z,102488.53
2022-10-11T20:01:01.109Z,102484.22
2022-10-11T20:03:27.768Z,102493.72
2022-10-11T20:05:54.130Z,102491.19
2022-10-11T20:08:20.555Z,102482.38
2022-10-11T20:10:47.641Z,102492.22
2022-10-11T20:13:14.009Z,102488.31
2022-10-11T20:15:40.548Z,102491.50
2022-10-11T20:18:07.011Z,102487.59
2022-10-11T20:20:33.429Z,102486.31
2022-10-11T20:22:59.933Z,102479.03
2022-10-11T20:25:26.294Z,102494.91
2022-10-11T20:27:53.129Z,102489.56
2022-10-11T20:30:19.525Z,102488.72
2022-10-11T20:32:46.034Z,102481.16
2022-10-11T20:35:12.434Z,102485.25
2022-10-11T20:37:38.923Z,102466.88
2022-10-11T20:40:05.735Z,102482.56
2022-10-11T20:42:32.117Z,102485.81
2022-10-11T20:44:59.086Z,102486.81
2022-10-11T20:47:25.502Z,102484.56
2022-10-11T20:49:51.841Z,102483.72
2022-10-11T20:52:18.341Z,102489.47
2022-10-11T20:54:44.739Z,102485.09
2022-10-11T20:57:11.538Z,102485.94
2022-10-11T20:59:38.026Z,102486.38
2022-10-11T21:02:04.487Z,102481.63
2022-10-11T21:04:31.022Z,102485.25
2022-10-11T21:06:57.381Z,102491.56
2022-10-11T21:09:24.006Z,102495.34
2022-10-11T21:11:51.550Z,102492.25
2022-10-11T21:14:18.050Z,102495.34
2022-10-11T21:16:44.436Z,102492.69
2022-10-11T21:19:13.306Z,102495.78
2022-10-11T21:21:39.680Z,102484.41
2022-10-11T21:24:06.452Z,102496.88
2022-10-11T21:26:33.417Z,102487.75
2022-10-11T21:28:59.895Z,102496.03
2022-10-11T21:31:31.050Z,102490.16
2022-10-11T21:34:00.296Z,102485.25
2022-10-11T21:36:26.865Z,102485.25
2022-10-11T21:38:53.881Z,102479.50
2022-10-11T21:41:23.134Z,102466.59
2022-10-11T21:43:49.638Z,102491.13
2022-10-11T21:47:04.941Z,102485.66
2022-10-11T21:49:18.048Z,102490.03
2022-10-11T21:51:45.286Z,102489.31
2022-10-11T21:54:11.769Z,102486.94
2022-10-11T21:56:38.203Z,102487.63
2022-10-11T21:59:06.698Z,102494.66
2022-10-11T22:01:36.873Z,102494.22
2022-10-11T22:04:07.630Z,102488.78
2022-10-11T22:06:34.420Z,102486.53
2022-10-11T22:09:00.887Z,102484.84
2022-10-11T22:11:27.539Z,102486.38
2022-10-11T22:13:54.037Z,102482.88
2022-10-11T22:16:20.772Z,102481.31
2022-10-11T22:18:47.304Z,102480.34
2022-10-11T22:21:22.126Z,102458.72
2022-10-11T22:23:51.055Z,102480.22
2022-10-11T22:26:26.225Z,102472.06
2022-10-11T22:28:53.464Z,102479.22
2022-10-11T22:31:20.957Z,102481.31
2022-10-11T22:33:47.449Z,102471.91
2022-10-11T22:36:16.553Z,102466.59
2022-10-11T22:38:43.811Z,102454.69
2022-10-11T22:41:10.556Z,102465.91
2022-10-11T22:43:37.734Z,102467.88
2022-10-11T22:46:05.496Z,102464.22
2022-10-11T22:48:31.947Z,102456.78
2022-10-11T22:50:58.534Z,102470.25
2022-10-11T22:53:24.913Z,102459.31
2022-10-11T22:55:51.355Z,102466.03
2022-10-11T22:58:17.734Z,102463.66
2022-10-11T23:00:44.124Z,102465.06
2022-10-11T23:03:14.785Z,102464.63
2022-10-11T23:05:41.336Z,102457.75
2022-10-11T23:08:09.533Z,102461.69
2022-10-11T23:10:40.040Z,102462.09
2022-10-11T23:13:06.414Z,102462.69
2022-10-11T23:15:32.908Z,102460.84
2022-10-11T23:17:59.361Z,102462.94
2022-10-11T23:20:25.763Z,102460.69
2022-10-11T23:22:52.164Z,102465.59
2022-10-11T23:25:18.632Z,102454.94
2022-10-11T23:27:44.974Z,102454.91
2022-10-11T23:30:12.261Z,102460.25
2022-10-11T23:32:38.647Z,102454.94
2022-10-11T23:35:05.948Z,102448.91
2022-10-11T23:37:32.323Z,102450.72
2022-10-11T23:39:58.797Z,102452.72
2022-10-11T23:42:25.243Z,102450.63
2022-10-11T23:44:52.869Z,102444.84
2022-10-11T23:47:19.220Z,102441.78
2022-10-11T23:49:45.580Z,102439.69
2022-10-11T23:52:11.935Z,102439.78
2022-10-11T23:54:38.302Z,102434.50
2022-10-11T23:57:04.843Z,102441.78
2022-10-11T23:59:31.254Z,102445.56
